sensor_id;sensor_type;location;lat;lon;timestamp;pressure;altitude;pressure_sealevel;temperature;humidity
29315;BME280;16320;53.954;9.506;2023-02-17T00:00:50;101669.69;;;7.04;100.00
29315;BME280;16320;53.954;9.506;2023-02-17T00:03:54;101677.47;;;7.07;100.00
29315;BME280;16320;53.954;9.506;2023-02-17T00:06:59;101678.31;;;7.08;100.00
29315;BME280;16320;53.954;9.506;2023-02-17T00:10:05;101680.03;;;7.10;100.00
29315;BME280;16320;53.954;9.506;2023-02-17T00:13:09;101675.63;;;7.12;100.00
29315;BME280;16320;53.954;9.506;2023-02-17T00:16:21;101668.66;;;7.11;100.00
29315;BME280;16320;53.954;9.506;2023-02-17T00:19:26;101664.31;;;7.12;100.00
29315;BME280;16320;53.954;9.506;2023-02-17T00:22:30;101669.50;;;7.13;100.00
29315;BME280;16320;53.954;9.506;2023-02-17T00:25:37;101676.41;;;7.16;100.00
29315;BME280;16320;53.954;9.506;2023-02-17T00:28:42;101675.47;;;7.19;100.00
29315;BME280;16320;53.954;9.506;2023-02-17T00:31:47;101676.34;;;7.19;100.00
29315;BME280;16320;53.954;9.506;2023-02-17T00:34:52;101664.19;;;7.18;100.00
29315;BME280;16320;53.954;9.506;2023-02-17T00:37:59;101664.97;;;7.22;100.00
29315;BME280;16320;53.954;9.506;2023-02-17T00:41:04;101648.41;;;7.21;100.00
29315;BME280;16320;53.954;9.506;2023-02-17T00:44:20;101650.03;;;7.27;100.00
29315;BME280;16320;53.954;9.506;2023-02-17T00:47:25;101638.59;;;7.31;100.00
29315;BME280;16320;53.954;9.506;2023-02-17T00:50:29;101629.91;;;7.30;100.00
29315;BME280;16320;53.954;9.506;2023-02-17T00:53:33;101628.16;;;7.31;100.00
29315;BME280;16320;53.954;9.506;2023-02-17T00:56:38;101620.25;;;7.34;100.00
29315;BME280;16320;53.954;9.506;2023-02-17T00:59:42;101626.31;;;7.36;100.00
29315;BME280;16320;53.954;9.506;2023-02-17T01:02:47;101627.13;;;7.38;100.00
29315;BME280;16320;53.954;9.506;2023-02-17T01:05:51;101629.75;;;7.38;100.00
29315;BME280;16320;53.954;9.506;2023-02-17T01:08:57;101624.44;;;7.41;100.00
29315;BME280;16320;53.954;9.506;2023-02-17T01:12:01;101620.13;;;7.39;100.00
29315;BME280;16320;53.954;9.506;2023-02-17T01:15:06;101619.22;;;7.41;100.00
29315;BME280;16320;53.954;9.506;2023-02-17T01:18:11;101619.13;;;7.44;100.00
29315;BME280;16320;53.954;9.506;2023-02-17T01:21:22;101620.78;;;7.48;100.00
29315;BME280;16320;53.954;9.506;2023-02-17T01:24:26;101616.47;;;7.47;100.00
29315;BME280;16320;53.954;9.506;2023-02-17T01:27:31;101612.81;;;7.53;100.00
29315;BME280;16320;53.954;9.506;2023-02-17T01:30:35;101606.81;;;7.49;100.00
29315;BME280;16320;53.954;9.506;2023-02-17T01:33:40;101604.94;;;7.55;100.00
29315;BME280;16320;53.954;9.506;2023-02-17T01:36:46;101599.78;;;7.51;100.00
29315;BME280;16320;53.954;9.506;2023-02-17T01:39:50;101594.41;;;7.58;100.00
29315;BME280;16320;53.954;9.506;2023-02-17T01:42:55;101590.97;;;7.56;100.00
29315;BME280;16320;53.954;9.506;2023-02-17T01:46:02;101589.22;;;7.56;100.00
29315;BME280;16320;53.954;9.506;2023-02-17T01:49:36;101583.88;;;7.61;100.00
29315;BME280;16320;53.954;9.506;2023-02-17T01:52:42;101566.38;;;7.63;100.00
29315;BME280;16320;53.954;9.506;2023-02-17T01:55:47;101560.25;;;7.64;100.00
29315;BME280;16320;53.954;9.506;2023-02-17T01:59:09;101549.00;;;7.60;100.00
29315;BME280;16320;53.954;9.506;2023-02-17T02:02:16;101548.97;;;7.62;100.00
29315;BME280;16320;53.954;9.506;2023-02-17T02:05:21;101553.13;;;7.70;100.00
29315;BME280;16320;53.954;9.506;2023-02-17T02:08:28;101551.47;;;7.66;100.00
29315;BME280;16320;53.954;9.506;2023-02-17T02:11:37;101550.69;;;7.63;100.00
29315;BME280;16320;53.954;9.506;2023-02-17T02:14:42;101547.13;;;7.67;100.00
29315;BME280;16320;53.954;9.506;2023-02-17T02:25:27;101550.47;;;7.72;100.00
29315;BME280;16320;53.954;9.506;2023-02-17T02:28:59;101553.88;;;7.74;100.00
29315;BME280;16320;53.954;9.506;2023-02-17T02:35:49;101515.47;;;7.76;100.00
29315;BME280;16320;53.954;9.506;2023-02-17T02:42:15;101515.38;;;7.79;100.00
29315;BME280;16320;53.954;9.506;2023-02-17T02:45:20;101518.91;;;7.78;100.00
29315;BME280;16320;53.954;9.506;2023-02-17T02:48:26;101517.13;;;7.80;100.00
29315;BME280;16320;53.954;9.506;2023-02-17T02:51:48;101507.50;;;7.81;100.00
29315;BME280;16320;53.954;9.506;2023-02-17T02:55:15;101490.97;;;7.80;100.00
29315;BME280;16320;53.954;9.506;2023-02-17T02:58:31;101499.59;;;7.82;100.00
29315;BME280;16320;53.954;9.506;2023-02-17T03:01:58;101496.88;;;7.87;100.00
29315;BME280;16320;53.954;9.506;2023-02-17T03:05:58;101487.34;;;7.84;100.00
29315;BME280;16320;53.954;9.506;2023-02-17T03:09:18;101484.72;;;7.84;100.00
29315;BME280;16320;53.954;9.506;2023-02-17T03:12:24;101491.69;;;7.85;100.00
29315;BME280;16320;53.954;9.506;2023-02-17T03:15:32;101504.75;;;7.85;100.00
29315;BME280;16320;53.954;9.506;2023-02-17T03:18:37;101499.41;;;7.90;100.00
29315;BME280;16320;53.954;9.506;2023-02-17T03:21:52;101495.94;;;7.90;100.00
29315;BME280;16320;53.954;9.506;2023-02-17T03:25:00;101489.78;;;7.91;100.00
29315;BME280;16320;53.954;9.506;2023-02-17T03:28:04;101488.91;;;7.92;100.00
29315;BME280;16320;53.954;9.506;2023-02-17T03:31:09;101481.78;;;7.97;100.00
29315;BME280;16320;53.954;9.506;2023-02-17T03:34:13;101487.19;;;7.91;100.00
29315;BME280;16320;53.954;9.506;2023-02-17T03:37:17;101474.81;;;7.96;100.00
29315;BME280;16320;53.954;9.506;2023-02-17T03:40:22;101479.19;;;7.95;100.00
29315;BME280;16320;53.954;9.506;2023-02-17T03:43:27;101467.88;;;7.95;100.00
29315;BME280;16320;53.954;9.506;2023-02-17T03:46:32;101473.88;;;7.98;100.00
29315;BME280;16320;53.954;9.506;2023-02-17T03:49:35;101474.72;;;7.99;100.00
29315;BME280;16320;53.954;9.506;2023-02-17T03:52:40;101472.13;;;7.99;100.00
29315;BME280;16320;53.954;9.506;2023-02-17T03:55:44;101471.31;;;7.97;100.00
29315;BME280;16320;53.954;9.506;2023-02-17T03:58:48;101469.31;;;8.05;100.00
29315;BME280;16320;53.954;9.506;2023-02-17T04:01:53;101468.47;;;8.04;100.00
29315;BME280;16320;53.954;9.506;2023-02-17T04:04:57;101465.81;;;8.06;100.00
29315;BME280;16320;53.954;9.506;2023-02-17T04:08:01;101475.38;;;8.07;100.00
29315;BME280;16320;53.954;9.506;2023-02-17T04:11:07;101463.91;;;8.11;100.00
29315;BME280;16320;53.954;9.506;2023-02-17T04:14:12;101452.56;;;8.11;100.00
29315;BME280;16320;53.954;9.506;2023-02-17T04:17:17;101450.03;;;8.09;100.00
29315;BME280;16320;53.954;9.506;2023-02-17T04:20:22;101455.16;;;8.12;100.00
29315;BME280;16320;53.954;9.506;2023-02-17T04:23:26;101446.31;;;8.16;100.00
29315;BME280;16320;53.954;9.506;2023-02-17T04:26:30;101449.72;;;8.18;100.00
29315;BME280;16320;53.954;9.506;2023-02-17T04:29:35;101460.13;;;8.21;100.00
29315;BME280;16320;53.954;9.506;2023-02-17T04:32:39;101450.41;;;8.25;100.00
29315;BME280;16320;53.954;9.506;2023-02-17T04:35:44;101456.44;;;8.29;100.00
29315;BME280;16320;53.954;9.506;2023-02-17T04:38:49;101440.81;;;8.25;100.00
29315;BME280;16320;53.954;9.506;2023-02-17T04:41:53;101443.25;;;8.30;100.00
29315;BME280;16320;53.954;9.506;2023-02-17T04:44:57;101432.78;;;8.30;100.00
29315;BME280;16320;53.954;9.506;2023-02-17T04:48:02;101424.28;;;8.23;100.00
29315;BME280;16320;53.954;9.506;2023-02-17T04:51:07;101418.09;;;8.26;100.00
29315;BME280;16320;53.954;9.506;2023-02-17T04:54:11;101418.91;;;8.28;100.00
29315;BME280;16320;53.954;9.506;2023-02-17T04:57:15;101411.00;;;8.30;100.00
29315;BME280;16320;53.954;9.506;2023-02-17T05:00:20;101401.09;;;8.39;100.00
29315;BME280;16320;53.954;9.506;2023-02-17T05:03:24;101410.06;;;8.32;100.00
29315;BME280;16320;53.954;9.506;2023-02-17T05:06:28;101404.19;;;8.25;100.00
29315;BME280;16320;53.954;9.506;2023-02-17T05:09:33;101398.09;;;8.23;100.00
29315;BME280;16320;53.954;9.506;2023-02-17T05:12:37;101391.59;;;8.37;100.00
29315;BME280;16320;53.954;9.506;2023-02-17T05:15:43;101388.03;;;8.39;100.00
29315;BME280;16320;53.954;9.506;2023-02-17T05:18:48;101369.09;;;8.31;100.00
29315;BME280;16320;53.954;9.506;2023-02-17T05:21:53;101366.41;;;8.33;100.00
29315;BME280;16320;53.954;9.506;2023-02-17T05:24:57;101361.03;;;8.37;100.00
29315;BME280;16320;53.954;9.506;2023-02-17T05:28:01;101366.47;;;8.31;100.00
29315;BME280;16320;53.954;9.506;2023-02-17T05:31:06;101370.75;;;8.34;100.00
29315;BME280;16320;53.954;9.506;2023-02-17T05:34:11;101349.81;;;8.34;100.00
29315;BME280;16320;53.954;9.506;2023-02-17T05:37:16;101348.09;;;8.33;100.00
29315;BME280;16320;53.954;9.506;2023-02-17T05:40:20;101352.44;;;8.34;100.00
29315;BME280;16320;53.954;9.506;2023-02-17T05:43:25;101348.81;;;8.38;100.00
29315;BME280;16320;53.954;9.506;2023-02-17T05:46:29;101356.59;;;8.39;100.00
29315;BME280;16320;53.954;9.506;2023-02-17T05:49:33;101334.00;;;8.37;100.00
29315;BME280;16320;53.954;9.506;2023-02-17T05:52:38;101333.13;;;8.36;100.00
29315;BME280;16320;53.954;9.506;2023-02-17T05:55:42;101327.16;;;8.33;100.00
29315;BME280;16320;53.954;9.506;2023-02-17T05:58:46;101323.53;;;8.37;100.00
29315;BME280;16320;53.954;9.506;2023-02-17T06:01:50;101313.03;;;8.38;100.00
29315;BME280;16320;53.954;9.506;2023-02-17T06:04:54;101308.75;;;8.36;100.00
29315;BME280;16320;53.954;9.506;2023-02-17T06:07:59;101300.84;;;8.37;100.00
29315;BME280;16320;53.954;9.506;2023-02-17T06:11:04;101298.00;;;8.45;100.00
29315;BME280;16320;53.954;9.506;2023-02-17T06:14:08;101295.44;;;8.43;100.00
29315;BME280;16320;53.954;9.506;2023-02-17T06:17:12;101288.31;;;8.47;100.00
29315;BME280;16320;53.954;9.506;2023-02-17T06:20:17;101283.25;;;8.41;100.00
29315;BME280;16320;53.954;9.506;2023-02-17T06:23:23;101284.97;;;8.42;100.00
29315;BME280;16320;53.954;9.506;2023-02-17T06:26:28;101276.22;;;8.43;100.00
29315;BME280;16320;53.954;9.506;2023-02-17T06:29:32;101279.69;;;8.45;100.00
29315;BME280;16320;53.954;9.506;2023-02-17T06:32:36;101273.63;;;8.41;100.00
29315;BME280;16320;53.954;9.506;2023-02-17T06:35:41;101264.88;;;8.42;100.00
29315;BME280;16320;53.954;9.506;2023-02-17T06:38:47;101270.78;;;8.49;100.00
29315;BME280;16320;53.954;9.506;2023-02-17T06:41:51;101259.47;;;8.49;100.00
29315;BME280;16320;53.954;9.506;2023-02-17T06:44:56;101264.03;;;8.42;100.00
29315;BME280;16320;53.954;9.506;2023-02-17T06:48:00;101264.03;;;8.42;100.00
29315;BME280;16320;53.954;9.506;2023-02-17T06:51:05;101256.81;;;8.50;100.00
29315;BME280;16320;53.954;9.506;2023-02-17T06:54:09;101258.72;;;8.45;100.00
29315;BME280;16320;53.954;9.506;2023-02-17T06:57:15;101261.13;;;8.51;100.00
29315;BME280;16320;53.954;9.506;2023-02-17T07:00:20;101263.72;;;8.51;100.00
29315;BME280;16320;53.954;9.506;2023-02-17T07:03:25;101262.03;;;8.50;100.00
29315;BME280;16320;53.954;9.506;2023-02-17T07:06:29;101271.66;;;8.50;100.00
29315;BME280;16320;53.954;9.506;2023-02-17T07:09:33;101266.50;;;8.48;100.00
29315;BME280;16320;53.954;9.506;2023-02-17T07:12:38;101260.13;;;8.55;100.00
29315;BME280;16320;53.954;9.506;2023-02-17T07:15:43;101261.94;;;8.53;100.00
29315;BME280;16320;53.954;9.506;2023-02-17T07:18:51;101251.47;;;8.53;100.00
29315;BME280;16320;53.954;9.506;2023-02-17T07:21:56;101258.50;;;8.51;100.00
29315;BME280;16320;53.954;9.506;2023-02-17T07:25:00;101251.56;;;8.50;100.00
29315;BME280;16320;53.954;9.506;2023-02-17T07:28:05;101251.66;;;8.47;100.00
29315;BME280;16320;53.954;9.506;2023-02-17T07:31:13;101255.19;;;8.46;100.00
29315;BME280;16320;53.954;9.506;2023-02-17T07:34:18;101257.81;;;8.46;100.00
29315;BME280;16320;53.954;9.506;2023-02-17T07:37:23;101246.44;;;8.47;100.00
29315;BME280;16320;53.954;9.506;2023-02-17T07:40:27;101233.28;;;8.49;100.00
29315;BME280;16320;53.954;9.506;2023-02-17T07:43:33;101221.09;;;8.48;100.00
29315;BME280;16320;53.954;9.506;2023-02-17T07:46:37;101221.94;;;8.50;100.00
29315;BME280;16320;53.954;9.506;2023-02-17T07:49:42;101212.16;;;8.55;100.00
29315;BME280;16320;53.954;9.506;2023-02-17T07:52:47;101200.06;;;8.51;100.00
29315;BME280;16320;53.954;9.506;2023-02-17T07:55:51;101198.47;;;8.47;100.00
29315;BME280;16320;53.954;9.506;2023-02-17T07:58:55;101192.16;;;8.52;100.00
29315;BME280;16320;53.954;9.506;2023-02-17T08:01:59;101184.44;;;8.48;100.00
29315;BME280;16320;53.954;9.506;2023-02-17T08:05:03;101173.03;;;8.50;100.00
29315;BME280;16320;53.954;9.506;2023-02-17T08:08:08;101180.88;;;8.50;100.00
29315;BME280;16320;53.954;9.506;2023-02-17T08:11:31;101176.44;;;8.52;100.00
29315;BME280;16320;53.954;9.506;2023-02-17T08:14:56;101168.78;;;8.46;100.00
29315;BME280;16320;53.954;9.506;2023-02-17T08:18:01;101168.00;;;8.44;100.00
29315;BME280;16320;53.954;9.506;2023-02-17T08:21:08;101155.72;;;8.46;100.00
29315;BME280;16320;53.954;9.506;2023-02-17T08:24:12;101160.84;;;8.49;100.00
29315;BME280;16320;53.954;9.506;2023-02-17T08:27:18;101148.69;;;8.48;100.00
29315;BME280;16320;53.954;9.506;2023-02-17T08:30:22;101140.94;;;8.45;100.00
29315;BME280;16320;53.954;9.506;2023-02-17T08:33:27;101146.16;;;8.45;100.00
29315;BME280;16320;53.954;9.506;2023-02-17T08:36:32;101148.84;;;8.42;100.00
29315;BME280;16320;53.954;9.506;2023-02-17T08:39:37;101156.63;;;8.45;100.00
29315;BME280;16320;53.954;9.506;2023-02-17T08:42:41;101157.94;;;8.57;100.00
29315;BME280;16320;53.954;9.506;2023-02-17T08:45:46;101133.75;;;8.50;100.00
29315;BME280;16320;53.954;9.506;2023-02-17T08:48:51;101135.38;;;8.53;100.00
29315;BME280;16320;53.954;9.506;2023-02-17T08:51:55;101134.53;;;8.52;100.00
29315;BME280;16320;53.954;9.506;2023-02-17T08:55:00;101140.88;;;8.47;100.00
29315;BME280;16320;53.954;9.506;2023-02-17T08:58:04;101141.59;;;8.50;100.00
29315;BME280;16320;53.954;9.506;2023-02-17T09:01:09;101141.59;;;8.50;100.00
29315;BME280;16320;53.954;9.506;2023-02-17T09:04:16;101144.00;;;8.56;100.00
29315;BME280;16320;53.954;9.506;2023-02-17T09:07:21;101151.00;;;8.56;100.00
29315;BME280;16320;53.954;9.506;2023-02-17T09:10:25;101143.97;;;8.58;100.00
29315;BME280;16320;53.954;9.506;2023-02-17T09:13:29;101151.63;;;8.63;100.00
29315;BME280;16320;53.954;9.506;2023-02-17T09:16:34;101148.22;;;8.60;100.00
29315;BME280;16320;53.954;9.506;2023-02-17T09:19:39;101138.84;;;8.55;100.00
29315;BME280;16320;53.954;9.506;2023-02-17T09:22:44;101141.28;;;8.59;100.00
29315;BME280;16320;53.954;9.506;2023-02-17T09:25:48;101145.44;;;8.65;100.00
29315;BME280;16320;53.954;9.506;2023-02-17T09:28:52;101140.03;;;8.70;100.00
29315;BME280;16320;53.954;9.506;2023-02-17T09:31:56;101122.66;;;8.67;100.00
29315;BME280;16320;53.954;9.506;2023-02-17T09:35:01;101121.13;;;8.61;100.00
29315;BME280;16320;53.954;9.506;2023-02-17T09:38:08;101135.69;;;8.69;100.00
29315;BME280;16320;53.954;9.506;2023-02-17T09:41:35;101126.09;;;8.69;100.00
29315;BME280;16320;53.954;9.506;2023-02-17T09:45:09;101119.97;;;8.69;100.00
29315;BME280;16320;53.954;9.506;2023-02-17T09:48:19;101121.41;;;8.77;100.00
29315;BME280;16320;53.954;9.506;2023-02-17T09:51:34;101123.16;;;8.77;100.00
29315;BME280;16320;53.954;9.506;2023-02-17T09:58:45;101116.97;;;8.79;100.00
29315;BME280;16320;53.954;9.506;2023-02-17T10:01:51;101133.53;;;8.80;100.00
29315;BME280;16320;53.954;9.506;2023-02-17T10:05:04;101112.56;;;8.80;100.00
29315;BME280;16320;53.954;9.506;2023-02-17T10:08:16;101113.44;;;8.81;100.00
29315;BME280;16320;53.954;9.506;2023-02-17T10:12:05;101124.75;;;8.81;100.00
29315;BME280;16320;53.954;9.506;2023-02-17T10:15:34;101099.59;;;8.77;100.00
29315;BME280;16320;53.954;9.506;2023-02-17T10:18:46;101109.03;;;8.81;100.00
29315;BME280;16320;53.954;9.506;2023-02-17T10:22:18;101094.16;;;8.82;100.00
29315;BME280;16320;53.954;9.506;2023-02-17T10:29:13;101101.25;;;8.79;100.00
29315;BME280;16320;53.954;9.506;2023-02-17T10:32:25;101108.00;;;8.85;100.00
29315;BME280;16320;53.954;9.506;2023-02-17T10:35:54;101119.53;;;8.81;100.00
29315;BME280;16320;53.954;9.506;2023-02-17T10:39:23;101122.81;;;8.86;100.00
29315;BME280;16320;53.954;9.506;2023-02-17T10:42:37;101112.34;;;8.86;100.00
29315;BME280;16320;53.954;9.506;2023-02-17T10:45:46;101119.41;;;8.84;100.00
29315;BME280;16320;53.954;9.506;2023-02-17T10:48:55;101117.47;;;8.89;100.00
29315;BME280;16320;53.954;9.506;2023-02-17T10:52:37;101113.78;;;8.93;100.00
29315;BME280;16320;53.954;9.506;2023-02-17T10:59:27;101103.38;;;8.92;100.00
29315;BME280;16320;53.954;9.506;2023-02-17T11:02:42;101113.56;;;9.00;100.00
29315;BME280;16320;53.954;9.506;2023-02-17T11:06:00;101113.50;;;9.01;100.00
29315;BME280;16320;53.954;9.506;2023-02-17T11:09:18;101110.59;;;9.09;100.00
29315;BME280;16320;53.954;9.506;2023-02-17T11:12:38;101105.34;;;9.09;100.00
29315;BME280;16320;53.954;9.506;2023-02-17T11:15:44;101110.59;;;9.09;100.00
29315;BME280;16320;53.954;9.506;2023-02-17T11:18:50;101113.09;;;9.12;100.00
29315;BME280;16320;53.954;9.506;2023-02-17T11:21:57;101113.59;;;9.22;100.00
29315;BME280;16320;53.954;9.506;2023-02-17T11:25:17;101103.09;;;9.22;100.00
29315;BME280;16320;53.954;9.506;2023-02-17T11:28:23;101103.09;;;9.22;100.00
29315;BME280;16320;53.954;9.506;2023-02-17T11:31:30;101111.50;;;9.30;100.00
29315;BME280;16320;53.954;9.506;2023-02-17T11:34:39;101103.94;;;9.22;100.00
29315;BME280;16320;53.954;9.506;2023-02-17T11:37:44;101101.03;;;9.30;100.00
29315;BME280;16320;53.954;9.506;2023-02-17T11:44:00;101094.00;;;9.30;100.00
29315;BME280;16320;53.954;9.506;2023-02-17T11:47:40;101090.47;;;9.31;100.00
29315;BME280;16320;53.954;9.506;2023-02-17T11:58:35;101071.47;;;9.26;100.00
29315;BME280;16320;53.954;9.506;2023-02-17T12:02:13;101082.75;;;9.28;100.00
29315;BME280;16320;53.954;9.506;2023-02-17T12:05:20;101091.50;;;9.27;100.00
29315;BME280;16320;53.954;9.506;2023-02-17T12:11:58;101082.97;;;9.22;100.00
29315;BME280;16320;53.954;9.506;2023-02-17T12:26:36;101096.81;;;9.26;100.00
29315;BME280;16320;53.954;9.506;2023-02-17T12:33:42;101092.09;;;9.34;100.00
29315;BME280;16320;53.954;9.506;2023-02-17T12:36:51;101067.53;;;9.37;100.00
29315;BME280;16320;53.954;9.506;2023-02-17T12:40:27;101064.81;;;9.40;100.00
29315;BME280;16320;53.954;9.506;2023-02-17T12:43:52;101060.16;;;9.46;100.00
29315;BME280;16320;53.954;9.506;2023-02-17T12:47:22;101114.25;;;9.49;100.00
29315;BME280;16320;53.954;9.506;2023-02-17T12:50:37;101083.56;;;9.51;100.00
29315;BME280;16320;53.954;9.506;2023-02-17T12:54:06;101103.59;;;9.52;100.00
29315;BME280;16320;53.954;9.506;2023-02-17T12:57:21;101103.41;;;9.57;100.00
29315;BME280;16320;53.954;9.506;2023-02-17T13:01:14;101079.75;;;9.58;100.00
29315;BME280;16320;53.954;9.506;2023-02-17T13:04:18;101090.13;;;9.61;100.00
29315;BME280;16320;53.954;9.506;2023-02-17T13:10:40;101100.91;;;9.76;100.00
29315;BME280;16320;53.954;9.506;2023-02-17T13:13:45;101140.13;;;9.79;100.00
29315;BME280;16320;53.954;9.506;2023-02-17T13:16:50;101138.53;;;9.75;100.00
29315;BME280;16320;53.954;9.506;2023-02-17T13:23:32;101122.78;;;9.75;100.00
29315;BME280;16320;53.954;9.506;2023-02-17T13:26:42;101137.88;;;9.69;100.00
29315;BME280;16320;53.954;9.506;2023-02-17T13:33:44;101125.63;;;9.70;100.00
29315;BME280;16320;53.954;9.506;2023-02-17T13:36:49;101142.44;;;9.64;100.00
29315;BME280;16320;53.954;9.506;2023-02-17T13:39:54;101151.50;;;9.57;100.00
29315;BME280;16320;53.954;9.506;2023-02-17T13:43:15;101168.91;;;9.58;100.00
29315;BME280;16320;53.954;9.506;2023-02-17T13:46:25;101162.78;;;9.59;100.00
29315;BME280;16320;53.954;9.506;2023-02-17T13:49:32;101146.97;;;9.61;100.00
29315;BME280;16320;53.954;9.506;2023-02-17T13:52:42;101169.91;;;9.56;100.00
29315;BME280;16320;53.954;9.506;2023-02-17T13:55:47;101152.72;;;9.48;100.00
29315;BME280;16320;53.954;9.506;2023-02-17T13:58:51;101160.69;;;9.45;100.00
29315;BME280;16320;53.954;9.506;2023-02-17T14:01:56;101166.88;;;9.44;100.00
29315;BME280;16320;53.954;9.506;2023-02-17T14:05:35;101177.78;;;9.33;100.00
29315;BME280;16320;53.954;9.506;2023-02-17T14:08:42;101197.28;;;9.26;100.00
29315;BME280;16320;53.954;9.506;2023-02-17T14:11:46;101178.28;;;9.21;100.00
29315;BME280;16320;53.954;9.506;2023-02-17T14:14:51;101189.03;;;9.13;100.00
29315;BME280;16320;53.954;9.506;2023-02-17T14:17:55;101186.47;;;9.12;100.00
29315;BME280;16320;53.954;9.506;2023-02-17T14:21:22;101184.97;;;9.05;100.00
29315;BME280;16320;53.954;9.506;2023-02-17T14:24:35;101188.75;;;8.97;100.00
29315;BME280;16320;53.954;9.506;2023-02-17T14:27:46;101192.66;;;8.87;100.00
29315;BME280;16320;53.954;9.506;2023-02-17T14:30:51;101201.50;;;8.83;100.00
29315;BME280;16320;53.954;9.506;2023-02-17T14:34:02;101207.06;;;8.74;100.00
29315;BME280;16320;53.954;9.506;2023-02-17T14:37:18;101200.25;;;8.70;100.00
29315;BME280;16320;53.954;9.506;2023-02-17T14:40:25;101199.56;;;8.65;100.00
29315;BME280;16320;53.954;9.506;2023-02-17T14:43:30;101201.50;;;8.59;100.00
29315;BME280;16320;53.954;9.506;2023-02-17T14:46:35;101203.47;;;8.53;100.00
29315;BME280;16320;53.954;9.506;2023-02-17T14:49:39;101208.69;;;8.53;100.00
29315;BME280;16320;53.954;9.506;2023-02-17T14:52:47;101190.50;;;8.50;100.00
29315;BME280;16320;53.954;9.506;2023-02-17T14:56:24;101200.00;;;8.52;100.00
29315;BME280;16320;53.954;9.506;2023-02-17T14:59:26;101205.28;;;8.51;100.00
29315;BME280;16320;53.954;9.506;2023-02-17T15:02:31;101204.22;;;8.56;100.00
29315;BME280;16320;53.954;9.506;2023-02-17T15:05:35;101162.34;;;8.56;100.00
29315;BME280;16320;53.954;9.506;2023-02-17T15:08:40;101122.25;;;8.54;100.00
29315;BME280;16320;53.954;9.506;2023-02-17T15:11:46;101027.22;;;8.52;100.00
29315;BME280;16320;53.954;9.506;2023-02-17T15:14:52;100980.31;;;8.46;100.00
29315;BME280;16320;53.954;9.506;2023-02-17T15:17:56;100979.53;;;8.44;100.00
29315;BME280;16320;53.954;9.506;2023-02-17T15:21:00;100959.72;;;8.37;100.00
29315;BME280;16320;53.954;9.506;2023-02-17T15:24:24;100926.72;;;8.33;100.00
29315;BME280;16320;53.954;9.506;2023-02-17T15:27:34;100939.00;;;8.31;100.00
29315;BME280;16320;53.954;9.506;2023-02-17T15:30:40;100950.38;;;8.30;100.00
29315;BME280;16320;53.954;9.506;2023-02-17T15:33:54;100931.50;;;8.21;100.00
29315;BME280;16320;53.954;9.506;2023-02-17T15:37:00;100923.78;;;8.18;100.00
29315;BME280;16320;53.954;9.506;2023-02-17T15:40:06;100889.16;;;8.12;100.00
29315;BME280;16320;53.954;9.506;2023-02-17T15:43:19;100863.28;;;8.04;100.00
29315;BME280;16320;53.954;9.506;2023-02-17T15:46:31;100852.16;;;7.99;100.00
29315;BME280;16320;53.954;9.506;2023-02-17T15:49:36;100819.97;;;7.97;100.00
29315;BME280;16320;53.954;9.506;2023-02-17T15:52:40;100815.75;;;7.93;100.00
29315;BME280;16320;53.954;9.506;2023-02-17T15:55:46;100804.56;;;7.89;100.00
29315;BME280;16320;53.954;9.506;2023-02-17T15:58:51;100786.56;;;7.81;100.00
29315;BME280;16320;53.954;9.506;2023-02-17T16:01:56;100796.25;;;7.79;100.00
29315;BME280;16320;53.954;9.506;2023-02-17T16:05:04;100794.72;;;7.74;100.00
29315;BME280;16320;53.954;9.506;2023-02-17T16:08:09;100803.59;;;7.69;100.00
29315;BME280;16320;53.954;9.506;2023-02-17T16:11:13;100795.00;;;7.66;100.00
29315;BME280;16320;53.954;9.506;2023-02-17T16:14:34;100792.41;;;7.66;100.00
29315;BME280;16320;53.954;9.506;2023-02-17T16:17:38;100814.53;;;7.57;100.00
29315;BME280;16320;53.954;9.506;2023-02-17T16:20:43;100822.53;;;7.53;100.00
29315;BME280;16320;53.954;9.506;2023-02-17T16:23:47;100843.78;;;7.43;100.00
29315;BME280;16320;53.954;9.506;2023-02-17T16:26:52;100849.16;;;7.39;100.00
29315;BME280;16320;53.954;9.506;2023-02-17T16:29:56;100853.56;;;7.38;100.00
29315;BME280;16320;53.954;9.506;2023-02-17T16:33:02;100848.38;;;7.37;100.00
29315;BME280;16320;53.954;9.506;2023-02-17T16:36:29;100847.97;;;7.24;100.00
29315;BME280;16320;53.954;9.506;2023-02-17T16:39:37;100867.16;;;7.23;100.00
29315;BME280;16320;53.954;9.506;2023-02-17T16:42:42;100869.06;;;7.18;100.00
29315;BME280;16320;53.954;9.506;2023-02-17T16:45:55;100862.16;;;7.17;100.00
29315;BME280;16320;53.954;9.506;2023-02-17T16:49:02;100870.22;;;7.10;100.00
29315;BME280;16320;53.954;9.506;2023-02-17T16:52:23;100886.88;;;7.06;100.00
29315;BME280;16320;53.954;9.506;2023-02-17T16:55:33;100873.13;;;7.01;100.00
29315;BME280;16320;53.954;9.506;2023-02-17T16:58:39;100898.31;;;7.04;100.00
29315;BME280;16320;53.954;9.506;2023-02-17T17:01:45;100897.59;;;6.99;100.00
29315;BME280;16320;53.954;9.506;2023-02-17T17:04:49;100929.19;;;6.91;100.00
29315;BME280;16320;53.954;9.506;2023-02-17T17:07:55;100927.38;;;6.93;100.00
29315;BME280;16320;53.954;9.506;2023-02-17T17:10:59;100916.84;;;6.96;100.00
29315;BME280;16320;53.954;9.506;2023-02-17T17:14:04;100913.53;;;6.91;100.00
29315;BME280;16320;53.954;9.506;2023-02-17T17:17:09;100923.97;;;6.91;100.00
29315;BME280;16320;53.954;9.506;2023-02-17T17:20:20;100919.44;;;6.96;100.00
29315;BME280;16320;53.954;9.506;2023-02-17T17:23:27;100917.78;;;6.93;100.00
29315;BME280;16320;53.954;9.506;2023-02-17T17:26:38;100940.44;;;6.93;100.00
29315;BME280;16320;53.954;9.506;2023-02-17T17:29:42;100941.56;;;6.86;100.00
29315;BME280;16320;53.954;9.506;2023-02-17T17:32:47;100950.94;;;6.91;100.00